Airfield :
LOGIN :

Register | Disclaimer

   EN    FR    IT 

 










Legend :    VFR   Marginal VFR   IFR   Intensive IFR   Very Intensive IFR
Visi :
Ceiling :
>= 8 km
>= 3000ft
5 to 8 km
1000 to 3000 ft
1500m to 5 km
500 to 1000 ft
800 to 1500m
200 to 500 ft
< 800m
< 200 ft
Symbols :   Thunderstorms  Fog  Heavy snow  Heavy precipitations  Wind > 20 kt
SIGMETs :     Misc.  Thunderstorms  Icing  Turbulence  Mountain Waves  Volcanic Ashes







- Airport Elevation : 390 ft
- IATA code : NQY
- Download approach charts


EGHQ - Newquay

CURRENT METAR :
  • 210820Z 12021KT 9999 FEW040 18/12 Q1006

EXPIRED METARs :
  • 210750Z 12022KT 9999 FEW040 18/12 Q1007
  • 210720Z 12022KT 9999 FEW040 17/12 Q1007
  • 210650Z 12019KT 9999 FEW040 17/11 Q1007
  • 210620Z 11022KT 9999 FEW040 17/11 Q1007
  • 210550Z 12020KT 9999 FEW040 17/10 Q1007

TAF TAF EGHQ
Valid from the 21 at 09:00 until the 21 at 18:00 UTC


210800Z 2109/2118 12015KT 9999 FEW022
PROB30
TEMPO 2109/2111 12018G28KT 8000 SHRA
TEMPO 2111/2118 7000 SHRA BKN014
PROB30
TEMPO 2111/2118 4000 +SHRA BKN009
No reported NOTAMs for that airfield.



MET'MAP, your aeronautical weather chart ! - Copyright ORBIFLY December 2007 - Disclaimer

ORBIFLY MET'MAP TEAM :

Programming & Development : Alexandra Zaïnal
Concept & Development : Baudouin d'Aumeries
Co-Development & Prog : Marc-Olivier Méhu
Technical & hardware support : Manuel Goepfert

Contact : metmap@orbifly.com




SOURCES & CREDITS :

   NOAA